Petersville, Texas
Current Conditions -  °F | °C
As of 6:51 AM on Friday 24 Oct 2014 (Local Time) from KVCT Reporting Station
Clear Clear  
Wind Chill: 14°   Ceiling: Unl
Heat Index: 14°   Visibility: 8mi
Dew Point: 12°   Wind: 0mph
Humidity: 89%   Direction: NA
Pressure: 30.12"   Gusts: NA
Location:  29.2421°N, 97.0692°W
Report Text: KVCT 241151Z 00000KT 8SM CLR 14/12 A3012 RMK AO2 SLP199 T01390122 10167 20139 53004
Loading
Personal Weather Stations






























Interactive Weather Map
Tropical Storm Tracking
New forecast layout! Learn more

10-Day Weather Forecast

Advertisements
Track Severe Weather on mobile